Time;durP1;ratioP1;P1;durP2;ratioP2;P2;SDS_P1;SDS_P2;PMS_P1;PMS_P2;Temp;Humidity;BMP_temperature;BMP_pressure;BME280_temperature;BME280_humidity;BME280_pressure;Samples;Min_cycle;Max_cycle;Signal;HPM_P1;HPM_P2
2022/07/15 00:02:23;;;;;;;0.00;0.00;;;19.60;99.90;;;;;;5113671;27;20029;-76
2022/07/15 00:04:49;;;;;;;0.00;0.00;;;19.70;99.90;;;;;;5135453;27;20038;-76
2022/07/15 00:07:15;;;;;;;0.00;0.00;;;19.80;99.90;;;;;;5116517;27;20389;-76
2022/07/15 00:12:27;;;;;;;2.88;2.78;;;20.20;99.90;;;;;;5115193;28;20061;-76
2022/07/15 00:14:53;;;;;;;0.00;0.00;;;20.40;99.90;;;;;;5115227;28;20082;-76
2022/07/15 00:17:19;;;;;;;0.00;0.00;;;20.40;98.20;;;;;;5120446;27;20032;-75
2022/07/15 00:19:45;;;;;;;0.00;0.00;;;20.40;98.70;;;;;;5117148;27;20023;-75
2022/07/15 00:22:11;;;;;;;0.00;0.00;;;20.50;99.90;;;;;;5110739;27;20062;-75
2022/07/15 00:24:38;;;;;;;0.00;0.00;;;20.40;99.90;;;;;;5124165;27;20023;-76
2022/07/15 00:27:04;;;;;;;0.00;0.00;;;20.50;99.90;;;;;;5096971;28;20062;-76
2022/07/15 00:29:30;;;;;;;0.00;0.00;;;20.60;99.90;;;;;;5097077;28;20119;-76
2022/07/15 00:31:57;;;;;;;0.20;0.20;;;21.00;97.40;;;;;;5096528;28;20027;-76
2022/07/15 00:34:23;;;;;;;0.00;0.00;;;21.00;93.70;;;;;;5114962;28;20019;-77
2022/07/15 00:36:49;;;;;;;0.00;0.00;;;21.70;92.90;;;;;;5114895;28;20076;-76
2022/07/15 00:39:16;;;;;;;0.20;0.20;;;22.60;81.10;;;;;;5114609;28;20205;-75
2022/07/15 00:41:44;;;;;;;0.00;0.00;;;23.80;74.20;;;;;;5115787;27;20019;-75
2022/07/15 00:44:11;;;;;;;0.10;0.10;;;24.40;67.50;;;;;;5122886;27;20028;-76
2022/07/15 00:46:37;;;;;;;0.00;0.00;;;24.90;62.20;;;;;;5125558;27;20011;-76
2022/07/15 00:49:06;;;;;;;0.00;0.00;;;25.30;61.90;;;;;;5110748;27;20019;-75
2022/07/15 00:51:59;;;;;;;0.00;0.00;;;25.90;59.10;;;;;;5121631;27;20046;-76
2022/07/15 00:54:27;;;;;;;0.00;0.00;;;26.00;58.10;;;;;;5122748;27;20035;-76
2022/07/15 00:56:57;;;;;;;0.00;0.00;;;26.80;56.20;;;;;;5113285;27;20451;-74
2022/07/15 00:59:28;;;;;;;0.00;0.00;;;27.70;54.00;;;;;;5102459;28;20036;-75
2022/07/15 01:01:56;;;;;;;0.00;0.00;;;28.50;51.50;;;;;;5099140;27;20129;-76
2022/07/15 01:04:24;;;;;;;0.00;0.00;;;29.00;48.80;;;;;;5132934;27;20037;-75
2022/07/15 01:06:50;;;;;;;0.00;0.00;;;29.10;47.50;;;;;;5116756;27;20031;-76
2022/07/15 01:09:18;;;;;;;0.00;0.00;;;29.80;46.20;;;;;;5121713;27;20015;-75
2022/07/15 01:11:45;;;;;;;0.00;0.00;;;29.50;47.20;;;;;;5126759;27;20025;-77
2022/07/15 01:14:11;;;;;;;0.00;0.00;;;29.50;46.70;;;;;;5108984;27;20024;-75
2022/07/15 01:16:37;;;;;;;0.00;0.00;;;29.00;47.60;;;;;;5120226;27;20079;-74
2022/07/15 01:19:04;;;;;;;0.00;0.00;;;30.00;46.20;;;;;;5119660;27;20023;-75
2022/07/15 01:21:30;;;;;;;1.25;0.82;;;30.40;44.60;;;;;;5100859;28;20092;-75
2022/07/15 01:23:56;;;;;;;0.10;0.10;;;30.00;45.70;;;;;;5128483;27;20019;-77
2022/07/15 01:26:22;;;;;;;0.00;0.00;;;29.40;47.20;;;;;;5132114;27;20019;-74
2022/07/15 01:28:48;;;;;;;0.00;0.00;;;29.10;46.70;;;;;;5105495;27;20075;-75
2022/07/15 01:31:14;;;;;;;0.00;0.00;;;28.90;47.70;;;;;;5131838;27;20036;-75
2022/07/15 01:33:41;;;;;;;1.90;0.30;;;28.20;46.00;;;;;;5134714;27;20472;-74
2022/07/15 01:36:07;;;;;;;0.17;0.17;;;27.90;46.70;;;;;;5128988;27;20533;-74
2022/07/15 01:38:33;;;;;;;0.00;0.00;;;27.30;46.10;;;;;;5133145;27;20114;-75
2022/07/15 01:40:59;;;;;;;0.00;0.00;;;26.90;47.90;;;;;;5136721;27;20397;-75
2022/07/15 01:43:25;;;;;;;0.00;0.00;;;27.10;48.50;;;;;;5137925;27;20019;-74
2022/07/15 01:45:51;;;;;;;0.00;0.00;;;26.40;49.20;;;;;;5131892;27;20023;-74
2022/07/15 01:51:02;;;;;;;0.03;0.03;;;26.50;49.20;;;;;;5113432;28;20027;-74
2022/07/15 01:53:29;;;;;;;0.00;0.00;;;27.20;48.20;;;;;;5125257;27;20068;-75
2022/07/15 01:55:55;;;;;;;0.00;0.00;;;28.20;46.00;;;;;;5133762;27;20026;-75
2022/07/15 01:58:22;;;;;;;0.00;0.00;;;28.60;44.60;;;;;;5134130;27;20496;-75
2022/07/15 02:00:49;;;;;;;0.00;0.00;;;29.50;42.60;;;;;;5133820;27;20027;-75
2022/07/15 02:03:15;;;;;;;0.00;0.00;;;28.20;44.50;;;;;;5133775;27;20023;-76
2022/07/15 02:05:41;;;;;;;0.05;0.05;;;27.70;45.40;;;;;;5127462;27;20474;-75
2022/07/15 02:08:08;;;;;;;0.00;0.00;;;27.70;45.70;;;;;;5095354;28;20055;-76
2022/07/15 02:10:40;;;;;;;1.65;1.55;;;28.50;44.80;;;;;;5113251;28;20031;-75
2022/07/15 02:13:14;;;;;;;0.00;0.00;;;29.70;43.50;;;;;;5115598;27;20474;-76
2022/07/15 02:15:41;;;;;;;0.68;0.35;;;31.20;41.10;;;;;;5119387;28;20033;-76
2022/07/15 02:18:10;;;;;;;0.10;0.10;;;32.20;39.70;;;;;;5128642;28;20026;-75
2022/07/15 02:20:37;;;;;;;0.03;0.03;;;32.10;39.10;;;;;;5133172;27;20019;-75
2022/07/15 02:23:03;;;;;;;0.80;0.80;;;32.30;39.10;;;;;;5125619;27;20036;-76
2022/07/15 02:25:31;;;;;;;0.00;0.00;;;32.40;38.10;;;;;;5120562;27;20416;-76
2022/07/15 02:28:00;;;;;;;0.00;0.00;;;33.20;37.50;;;;;;5128714;27;20024;-75
2022/07/15 02:30:30;;;;;;;0.00;0.00;;;32.80;37.80;;;;;;5131041;27;20076;-74
2022/07/15 02:32:57;;;;;;;0.00;0.00;;;34.00;37.50;;;;;;5122386;27;20060;-75
2022/07/15 02:35:23;;;;;;;0.00;0.00;;;35.20;35.40;;;;;;5118329;27;20073;-75
2022/07/15 02:37:49;;;;;;;6.25;1.83;;;33.00;37.10;;;;;;5122640;27;20031;-75
2022/07/15 02:40:15;;;;;;;1.45;0.80;;;33.30;37.30;;;;;;5117567;27;20035;-75
2022/07/15 02:42:48;;;;;;;0.22;0.22;;;32.40;37.50;;;;;;5110550;27;20064;-81
2022/07/15 02:45:14;;;;;;;0.00;0.00;;;31.80;39.20;;;;;;5133772;27;20011;-83
2022/07/15 02:47:40;;;;;;;0.17;0.17;;;31.60;39.00;;;;;;5129426;27;20107;-83
2022/07/15 02:50:07;;;;;;;0.00;0.00;;;32.40;37.60;;;;;;5131775;27;20023;-83
2022/07/15 02:52:33;;;;;;;0.00;0.00;;;33.40;36.30;;;;;;5129253;27;20054;-83
2022/07/15 02:54:59;;;;;;;0.55;0.10;;;33.80;35.50;;;;;;5123948;27;20034;-81
2022/07/15 02:57:25;;;;;;;0.75;0.75;;;34.30;35.10;;;;;;5139402;27;20024;-82
2022/07/15 02:59:51;;;;;;;0.17;0.17;;;33.70;35.30;;;;;;5111625;27;20454;-83
2022/07/15 03:02:17;;;;;;;1.80;0.65;;;33.30;34.90;;;;;;5133967;27;20068;-83
2022/07/15 03:04:44;;;;;;;0.20;0.20;;;32.30;37.50;;;;;;5136306;27;20041;-84
2022/07/15 03:07:10;;;;;;;0.10;0.00;;;32.60;37.50;;;;;;5131866;27;20055;-83
2022/07/15 03:09:37;;;;;;;0.00;0.00;;;33.10;37.70;;;;;;5137551;27;20019;-83
2022/07/15 03:12:03;;;;;;;0.00;0.00;;;33.70;36.90;;;;;;5119405;27;20069;-83
2022/07/15 03:14:29;;;;;;;0.00;0.00;;;34.60;35.80;;;;;;5120883;27;20047;-83
2022/07/15 03:16:56;;;;;;;0.40;0.30;;;34.00;35.20;;;;;;5130208;27;20039;-79
2022/07/15 03:19:22;;;;;;;10.75;2.35;;;34.20;36.30;;;;;;5139013;27;20023;-81
2022/07/15 03:21:48;;;;;;;0.65;0.65;;;33.90;35.80;;;;;;5136146;27;20027;-82
2022/07/15 03:24:15;;;;;;;0.10;0.10;;;33.70;34.90;;;;;;5135670;27;20011;-83
2022/07/15 03:26:41;;;;;;;11.80;9.13;;;33.40;34.80;;;;;;5135232;27;20062;-83
2022/07/15 03:29:08;;;;;;;1.35;1.35;;;32.60;35.20;;;;;;5136326;27;20023;-84
2022/07/15 03:31:34;;;;;;;0.03;0.03;;;33.90;34.10;;;;;;5119374;27;20354;-85
2022/07/15 03:34:00;;;;;;;0.10;0.10;;;33.70;34.60;;;;;;5135085;27;20035;-84
2022/07/15 03:36:26;;;;;;;5.45;5.20;;;32.50;35.40;;;;;;5134183;27;20050;-86
2022/07/15 03:38:52;;;;;;;3.42;0.43;;;32.30;36.00;;;;;;5136451;27;20051;-80
2022/07/15 03:41:18;;;;;;;0.00;0.00;;;32.50;34.30;;;;;;5129813;27;20084;-84
2022/07/15 03:43:45;;;;;;;0.10;0.10;;;33.10;34.50;;;;;;5130913;27;20022;-80
2022/07/15 03:46:11;;;;;;;0.43;0.30;;;32.60;34.00;;;;;;5135520;27;20026;-79
2022/07/15 03:48:37;;;;;;;0.00;0.00;;;32.90;34.20;;;;;;5136226;27;20354;-81
2022/07/15 03:51:04;;;;;;;0.00;0.00;;;33.00;34.60;;;;;;5136576;27;20028;-80
2022/07/15 03:53:30;;;;;;;2.90;1.20;;;33.30;34.60;;;;;;5135853;27;20020;-78
2022/07/15 03:55:56;;;;;;;0.20;0.10;;;33.20;34.90;;;;;;5111829;28;20023;-80
2022/07/15 03:58:22;;;;;;;0.00;0.00;;;32.60;35.40;;;;;;5129200;27;20038;-82
2022/07/15 04:00:48;;;;;;;0.00;0.00;;;31.00;35.90;;;;;;5126926;27;20497;-82
2022/07/15 04:03:14;;;;;;;0.00;0.00;;;31.00;37.10;;;;;;5113464;27;20030;-82
2022/07/15 04:05:40;;;;;;;0.85;0.85;;;30.80;37.20;;;;;;5133671;27;20500;-82
2022/07/15 04:08:06;;;;;;;0.00;0.00;;;30.20;37.20;;;;;;5135787;27;20128;-84
2022/07/15 04:10:32;;;;;;;0.08;0.08;;;29.90;36.80;;;;;;5134171;27;20029;-82
2022/07/15 04:12:58;;;;;;;0.00;0.00;;;30.40;36.40;;;;;;5134879;27;20114;-79
2022/07/15 04:15:24;;;;;;;4.80;1.00;;;30.30;37.00;;;;;;5112474;27;20030;-81
2022/07/15 04:17:50;;;;;;;0.10;0.10;;;30.20;37.10;;;;;;5135009;27;20091;-81
2022/07/15 04:20:16;;;;;;;0.40;0.40;;;30.20;38.00;;;;;;5114493;27;20077;-80
2022/07/15 04:22:44;;;;;;;1.73;1.13;;;30.00;38.90;;;;;;5138918;27;20026;-79
2022/07/15 04:25:14;;;;;;;1.88;0.98;;;29.90;38.40;;;;;;5145564;27;20095;-79
2022/07/15 04:27:40;;;;;;;0.00;0.00;;;29.60;38.50;;;;;;5118392;27;20106;-81
2022/07/15 04:30:06;;;;;;;0.20;0.20;;;29.10;39.70;;;;;;5117151;27;20019;-83
2022/07/15 04:32:33;;;;;;;0.00;0.00;;;29.10;39.70;;;;;;5118893;27;20027;-83
2022/07/15 04:34:59;;;;;;;0.00;0.00;;;29.30;39.80;;;;;;5138594;27;20430;-82
2022/07/15 04:37:25;;;;;;;1.35;0.70;;;29.70;38.50;;;;;;5120576;27;20033;-82
2022/07/15 04:39:51;;;;;;;0.00;0.00;;;29.70;37.90;;;;;;5121626;27;20043;-82
2022/07/15 04:42:17;;;;;;;1.23;1.23;;;29.40;38.10;;;;;;5136689;27;20030;-81
2022/07/15 04:44:43;;;;;;;0.00;0.00;;;29.20;39.20;;;;;;5117897;27;20513;-82
2022/07/15 04:47:09;;;;;;;1.77;1.63;;;29.40;39.10;;;;;;5137684;27;20419;-80
2022/07/15 04:52:20;;;;;;;0.70;0.70;;;29.20;41.30;;;;;;5137178;27;20076;-80
2022/07/15 04:54:46;;;;;;;1.70;1.65;;;29.60;42.60;;;;;;5116971;27;20023;-80
2022/07/15 04:57:12;;;;;;;1.67;0.73;;;29.60;42.60;;;;;;5117107;27;20027;-80
2022/07/15 04:59:38;;;;;;;1.25;1.23;;;29.50;42.70;;;;;;5136643;27;20477;-80
2022/07/15 05:02:04;;;;;;;0.00;0.00;;;29.60;41.70;;;;;;5147184;27;20019;-78
2022/07/15 05:04:30;;;;;;;12.57;11.68;;;29.60;40.30;;;;;;5149553;27;20082;-76
2022/07/15 05:06:56;;;;;;;0.35;0.32;;;29.60;40.50;;;;;;5135185;27;20058;-80
2022/07/15 05:09:22;;;;;;;0.00;0.00;;;29.90;39.30;;;;;;5130936;27;20526;-79
2022/07/15 05:11:48;;;;;;;0.10;0.10;;;29.80;39.00;;;;;;5136782;27;20027;-79
2022/07/15 05:14:15;;;;;;;0.50;0.50;;;30.00;38.30;;;;;;5119791;27;20027;-78
2022/07/15 05:16:41;;;;;;;1.35;1.25;;;30.10;38.90;;;;;;5137908;27;20023;-78
2022/07/15 05:19:07;;;;;;;7.13;4.18;;;30.00;39.50;;;;;;5118075;27;20030;-79
2022/07/15 05:21:34;;;;;;;0.50;0.50;;;29.90;38.80;;;;;;5135763;27;20465;-78
2022/07/15 05:24:01;;;;;;;1.70;1.42;;;29.70;38.80;;;;;;5130444;27;20031;-78
2022/07/15 05:26:27;;;;;;;0.75;0.70;;;29.80;39.40;;;;;;5131164;27;20047;-77
2022/07/15 05:28:53;;;;;;;2.53;1.02;;;30.10;39.60;;;;;;5133419;27;20091;-79
2022/07/15 05:31:19;;;;;;;0.00;0.00;;;30.20;38.60;;;;;;5131659;27;20050;-79
2022/07/15 05:33:45;;;;;;;0.30;0.30;;;30.10;39.00;;;;;;5108990;27;20023;-78
2022/07/15 05:36:13;;;;;;;0.00;0.00;;;30.30;39.50;;;;;;5128854;27;20084;-77
2022/07/15 05:38:40;;;;;;;0.00;0.00;;;30.60;40.20;;;;;;5131167;27;20395;-77
2022/07/15 05:41:06;;;;;;;1.20;1.02;;;30.60;40.10;;;;;;5114962;27;20033;-76
2022/07/15 05:43:32;;;;;;;5.80;5.50;;;30.20;40.60;;;;;;5133063;27;20049;-77
2022/07/15 05:45:58;;;;;;;0.43;0.40;;;30.10;40.80;;;;;;5117172;27;20023;-78
2022/07/15 05:48:24;;;;;;;0.20;0.20;;;29.90;40.10;;;;;;5133880;27;20118;-75
2022/07/15 05:50:50;;;;;;;7.93;7.45;;;30.00;40.70;;;;;;5134470;27;20027;-77
2022/07/15 05:53:16;;;;;;;0.00;0.00;;;30.20;40.50;;;;;;5133844;27;20015;-78
2022/07/15 05:55:42;;;;;;;0.00;0.00;;;30.30;40.00;;;;;;5134820;27;20041;-77
2022/07/15 05:58:09;;;;;;;0.00;0.00;;;30.50;40.00;;;;;;5113639;28;20114;-75
2022/07/15 06:00:37;;;;;;;2.92;1.75;;;30.40;40.80;;;;;;5132227;27;20450;-78
2022/07/15 06:03:04;;;;;;;3.13;1.65;;;30.30;41.00;;;;;;5123303;27;20041;-82
2022/07/15 06:05:31;;;;;;;0.00;0.00;;;30.00;39.80;;;;;;5134033;27;20019;-80
2022/07/15 06:07:57;;;;;;;0.55;0.52;;;29.90;40.00;;;;;;5130878;27;20031;-79
2022/07/15 06:10:23;;;;;;;0.00;0.00;;;30.10;40.70;;;;;;5135143;27;20022;-80
2022/07/15 06:12:52;;;;;;;2.92;2.10;;;30.20;40.90;;;;;;5134011;27;20069;-80
2022/07/15 06:15:19;;;;;;;8.18;1.05;;;30.30;40.50;;;;;;5114616;28;20026;-79
2022/07/15 06:17:46;;;;;;;0.00;0.00;;;30.30;40.10;;;;;;5131163;28;20269;-80
2022/07/15 06:20:12;;;;;;;0.00;0.00;;;30.20;39.00;;;;;;5131625;28;20030;-80
2022/07/15 06:22:39;;;;;;;0.00;0.00;;;30.20;39.30;;;;;;5119439;28;20126;-81
2022/07/15 06:25:05;;;;;;;0.82;0.82;;;30.30;39.40;;;;;;5121223;28;20030;-81
2022/07/15 06:27:32;;;;;;;0.57;0.57;;;30.40;40.00;;;;;;5134359;28;20457;-82
2022/07/15 06:29:58;;;;;;;0.25;0.15;;;30.50;40.50;;;;;;5135216;28;20026;-81
2022/07/15 06:32:24;;;;;;;0.00;0.00;;;30.50;40.60;;;;;;5116653;28;20389;-83
2022/07/15 06:34:50;;;;;;;0.00;0.00;;;30.50;40.10;;;;;;5107950;28;20056;-82
2022/07/15 06:37:17;;;;;;;0.00;0.00;;;30.50;39.80;;;;;;5132866;28;20023;-83
2022/07/15 06:39:43;;;;;;;0.32;0.20;;;30.60;40.20;;;;;;5118179;28;20047;-83
2022/07/15 06:42:10;;;;;;;0.85;0.82;;;30.60;40.30;;;;;;5114725;28;20028;-83
2022/07/15 06:44:36;;;;;;;0.20;0.20;;;30.60;38.40;;;;;;5124123;28;20474;-83
2022/07/15 06:47:03;;;;;;;0.98;0.25;;;30.50;38.80;;;;;;5114395;28;20400;-82
2022/07/15 06:49:30;;;;;;;0.00;0.00;;;30.50;38.40;;;;;;5120779;28;20019;-81
2022/07/15 06:51:56;;;;;;;0.05;0.05;;;30.70;38.70;;;;;;5131564;28;20051;-82
2022/07/15 06:54:22;;;;;;;0.00;0.00;;;30.80;37.80;;;;;;5103317;28;20028;-81
2022/07/15 06:56:48;;;;;;;1.70;0.60;;;31.10;37.20;;;;;;5113948;27;20024;-82
2022/07/15 06:59:14;;;;;;;1.65;0.45;;;31.20;37.50;;;;;;5123090;27;20054;-83
2022/07/15 07:01:40;;;;;;;0.00;0.00;;;31.10;38.20;;;;;;5111381;28;20393;-82
2022/07/15 07:04:06;;;;;;;0.00;0.00;;;30.80;37.80;;;;;;5095138;28;20390;-81
2022/07/15 07:06:33;;;;;;;0.00;0.00;;;31.00;37.60;;;;;;5118925;27;20019;-82
2022/07/15 07:08:59;;;;;;;0.22;0.22;;;31.30;37.40;;;;;;5127988;27;20031;-82
2022/07/15 07:11:25;;;;;;;0.60;0.60;;;31.30;37.10;;;;;;5155561;27;20027;-81
2022/07/15 07:13:52;;;;;;;0.00;0.00;;;31.10;37.10;;;;;;5135072;27;20038;-81
2022/07/15 07:16:19;;;;;;;0.00;0.00;;;30.80;36.40;;;;;;5131831;27;20029;-81
2022/07/15 07:18:47;;;;;;;0.00;0.00;;;31.00;37.20;;;;;;5126958;27;20034;-80
2022/07/15 07:21:14;;;;;;;0.10;0.10;;;31.50;35.70;;;;;;5132219;27;20464;-81
2022/07/15 07:23:40;;;;;;;0.10;0.10;;;31.60;35.50;;;;;;5107979;27;20094;-82
2022/07/15 07:26:08;;;;;;;0.52;0.52;;;31.90;35.30;;;;;;5107391;28;20027;-81
2022/07/15 07:28:34;;;;;;;0.75;0.75;;;32.10;34.90;;;;;;5123016;27;20026;-80
2022/07/15 07:31:00;;;;;;;0.00;0.00;;;32.10;35.00;;;;;;5120350;27;20439;-81
2022/07/15 07:33:26;;;;;;;0.00;0.00;;;31.70;34.60;;;;;;5124804;27;20043;-82
2022/07/15 07:35:52;;;;;;;0.10;0.10;;;32.00;34.40;;;;;;5132315;27;20030;-82
2022/07/15 07:38:20;;;;;;;0.03;0.03;;;31.70;34.30;;;;;;5123128;27;20035;-81
2022/07/15 07:40:49;;;;;;;0.93;0.93;;;31.90;36.20;;;;;;5126699;27;20019;-81
2022/07/15 07:43:17;;;;;;;2.17;2.08;;;31.70;36.20;;;;;;5133391;27;20465;-84
2022/07/15 07:45:43;;;;;;;0.00;0.00;;;31.90;36.90;;;;;;5122957;27;20026;-81
2022/07/15 07:48:09;;;;;;;1.17;1.17;;;32.10;36.00;;;;;;5116280;27;20031;-83
2022/07/15 07:50:35;;;;;;;1.77;0.60;;;31.80;35.60;;;;;;5106305;27;20015;-81
2022/07/15 07:53:01;;;;;;;0.00;0.00;;;31.90;35.20;;;;;;5127866;27;20031;-80
2022/07/15 07:55:28;;;;;;;0.00;0.00;;;31.60;34.10;;;;;;5125010;27;20034;-81
2022/07/15 07:57:56;;;;;;;31.23;6.55;;;31.90;35.70;;;;;;5128932;27;20478;-81
2022/07/15 08:00:23;;;;;;;0.00;0.00;;;32.20;34.80;;;;;;5104978;27;20086;-81
2022/07/15 08:02:50;;;;;;;0.30;0.10;;;31.90;35.30;;;;;;5103683;27;20027;-82
2022/07/15 08:05:17;;;;;;;0.10;0.10;;;32.10;35.00;;;;;;5124947;27;20015;-78
2022/07/15 08:07:43;;;;;;;0.00;0.00;;;32.40;34.10;;;;;;5110326;27;20037;-79
2022/07/15 08:10:10;;;;;;;0.05;0.05;;;32.70;33.50;;;;;;5114244;27;20361;-83
2022/07/15 08:12:37;;;;;;;0.00;0.00;;;32.90;33.00;;;;;;5113712;27;20072;-82
2022/07/15 08:15:06;;;;;;;0.52;0.38;;;32.70;33.70;;;;;;5131330;27;20403;-84
2022/07/15 08:17:32;;;;;;;0.00;0.00;;;32.60;35.00;;;;;;5128068;27;20027;-82
2022/07/15 08:19:58;;;;;;;0.00;0.00;;;32.50;34.40;;;;;;5123284;27;20022;-83
2022/07/15 08:22:24;;;;;;;0.00;0.00;;;32.20;35.00;;;;;;5109016;27;20396;-85
2022/07/15 08:24:50;;;;;;;0.00;0.00;;;32.60;34.20;;;;;;5135636;27;20091;-90
2022/07/15 08:27:17;;;;;;;0.00;0.00;;;32.90;33.30;;;;;;5147555;27;20030;-82
2022/07/15 08:29:44;;;;;;;0.00;0.00;;;33.30;33.20;;;;;;5138877;27;20466;-82
2022/07/15 08:32:10;;;;;;;0.10;0.10;;;33.40;32.00;;;;;;5111075;27;20498;-81
2022/07/15 08:34:36;;;;;;;0.00;0.00;;;33.30;31.70;;;;;;5108340;27;20028;-81
2022/07/15 08:37:02;;;;;;;0.00;0.00;;;33.20;32.80;;;;;;5120369;27;20027;-83
2022/07/15 08:39:28;;;;;;;0.00;0.00;;;33.40;31.90;;;;;;5129778;27;20462;-83
2022/07/15 08:41:54;;;;;;;0.00;0.00;;;33.70;31.00;;;;;;5128862;28;20044;-82
2022/07/15 08:44:20;;;;;;;0.00;0.00;;;33.50;31.80;;;;;;5117553;28;20011;-81
2022/07/15 08:46:47;;;;;;;0.10;0.10;;;33.50;31.80;;;;;;5125431;27;20139;-80
2022/07/15 08:49:18;;;;;;;0.00;0.00;;;33.60;32.80;;;;;;5104778;28;20031;-80
2022/07/15 08:51:46;;;;;;;0.88;0.32;;;33.30;32.10;;;;;;5106483;28;20502;-78
2022/07/15 08:54:14;;;;;;;0.00;0.00;;;33.50;30.40;;;;;;5106649;27;20084;-78
2022/07/15 08:56:45;;;;;;;0.00;0.00;;;33.20;30.10;;;;;;5089157;28;21871;-80
2022/07/15 08:59:11;;;;;;;0.10;0.10;;;32.90;30.30;;;;;;5090802;28;20043;-78
2022/07/15 09:01:43;;;;;;;0.00;0.00;;;33.10;31.90;;;;;;5107038;28;20114;-85
2022/07/15 09:04:10;;;;;;;0.00;0.00;;;33.40;31.70;;;;;;5105420;27;20021;-86
2022/07/15 09:06:38;;;;;;;0.00;0.00;;;33.20;30.20;;;;;;5108023;27;20486;-80
2022/07/15 09:09:30;;;;;;;0.00;0.00;;;33.00;30.90;;;;;;5109690;27;20068;-81
2022/07/15 09:12:01;;;;;;;0.00;0.00;;;33.30;31.30;;;;;;5109023;28;20139;-79
2022/07/15 09:14:29;;;;;;;0.00;0.00;;;33.80;31.40;;;;;;5100190;28;20032;-79
2022/07/15 09:17:22;;;;;;;0.10;0.10;;;33.90;31.60;;;;;;5101649;27;20562;-79
2022/07/15 09:20:05;;;;;;;0.00;0.00;;;34.00;31.80;;;;;;5101357;28;20055;-81
2022/07/15 09:22:34;;;;;;;0.05;0.00;;;33.80;30.50;;;;;;5084803;28;20505;-84
2022/07/15 09:25:07;;;;;;;0.00;0.00;;;33.60;30.40;;;;;;5107546;27;20023;-83
2022/07/15 09:27:40;;;;;;;0.00;0.00;;;33.30;30.20;;;;;;5104857;27;20018;-82
2022/07/15 09:36:02;;;;;;;0.00;0.00;;;33.80;30.30;;;;;;5106652;27;20162;-82
2022/07/15 09:38:43;;;;;;;4.00;1.08;;;33.60;29.60;;;;;;5089902;28;21570;-85
2022/07/15 09:41:29;;;;;;;0.65;0.65;;;33.80;29.60;;;;;;5090300;28;20058;-86
2022/07/15 09:43:57;;;;;;;0.00;0.00;;;33.90;29.40;;;;;;5108195;28;20028;-81
2022/07/15 09:46:27;;;;;;;16.92;3.95;;;33.40;29.70;;;;;;5108488;27;20059;-79
2022/07/15 09:48:54;;;;;;;0.20;0.17;;;33.20;29.30;;;;;;5102368;27;20023;-77
2022/07/15 09:51:22;;;;;;;0.00;0.00;;;33.20;29.50;;;;;;5106656;27;20063;-77
2022/07/15 09:53:50;;;;;;;0.00;0.00;;;33.50;28.90;;;;;;5104049;27;20076;-79
2022/07/15 09:56:22;;;;;;;0.40;0.32;;;33.40;29.50;;;;;;5106165;27;20022;-81
2022/07/15 09:58:52;;;;;;;0.00;0.00;;;33.30;29.80;;;;;;5112956;27;20387;-78
2022/07/15 10:01:18;;;;;;;0.00;0.00;;;33.30;30.10;;;;;;5104382;28;20035;-78
2022/07/15 10:03:59;;;;;;;0.00;0.00;;;33.60;30.20;;;;;;5089734;28;20028;-79
2022/07/15 10:06:27;;;;;;;0.00;0.00;;;33.70;30.10;;;;;;5091597;28;20030;-85
2022/07/15 10:08:54;;;;;;;1.45;0.70;;;33.70;30.70;;;;;;5108636;28;20016;-80
2022/07/15 10:11:20;;;;;;;0.00;0.00;;;33.90;30.30;;;;;;5087518;28;20150;-84
2022/07/15 10:14:15;;;;;;;4.28;3.00;;;33.60;29.80;;;;;;5083306;28;20019;-82
2022/07/15 10:17:12;;;;;;;0.00;0.00;;;33.60;29.70;;;;;;5102376;28;20031;-80
2022/07/15 10:19:53;;;;;;;0.00;0.00;;;33.70;29.90;;;;;;5098311;28;20477;-81
2022/07/15 10:22:45;;;;;;;0.00;0.00;;;33.70;29.20;;;;;;5110483;28;20024;-76
2022/07/15 10:25:14;;;;;;;0.10;0.10;;;33.70;28.70;;;;;;5081620;28;20028;-77
2022/07/15 10:28:03;;;;;;;0.00;0.00;;;33.40;28.90;;;;;;5098498;28;20024;-77
2022/07/15 10:30:39;;;;;;;0.00;0.00;;;33.40;28.70;;;;;;5085463;28;20026;-84
2022/07/15 10:33:14;;;;;;;0.00;0.00;;;33.40;28.80;;;;;;5092271;28;20031;-81
2022/07/15 10:35:48;;;;;;;0.00;0.00;;;33.20;28.90;;;;;;5107637;28;20024;-84
2022/07/15 10:38:34;;;;;;;0.25;0.25;;;33.10;29.40;;;;;;5105552;28;20117;-83
2022/07/15 10:41:16;;;;;;;0.00;0.00;;;33.30;30.50;;;;;;5099597;28;20370;-84
2022/07/15 10:43:45;;;;;;;0.00;0.00;;;33.10;29.80;;;;;;5107283;28;20027;-87
2022/07/15 10:46:20;;;;;;;0.00;0.00;;;33.20;29.80;;;;;;5121200;27;20035;-85
2022/07/15 10:48:48;;;;;;;0.10;0.10;;;33.30;29.50;;;;;;5102828;28;20023;-84
2022/07/15 10:51:37;;;;;;;0.35;0.35;;;33.20;29.20;;;;;;5112403;27;20051;-87
2022/07/15 10:54:28;;;;;;;0.00;0.00;;;32.90;29.10;;;;;;5111986;28;20107;-86
2022/07/15 10:56:54;;;;;;;0.00;0.00;;;32.90;28.90;;;;;;5100512;28;20424;-81
2022/07/15 10:59:23;;;;;;;0.00;0.00;;;32.90;28.50;;;;;;5107638;28;20096;-83
2022/07/15 11:02:11;;;;;;;0.00;0.00;;;32.80;28.00;;;;;;5104037;28;20127;-81
2022/07/15 11:04:38;;;;;;;0.00;0.00;;;32.90;28.60;;;;;;5092461;28;20027;-82
2022/07/15 11:07:07;;;;;;;0.10;0.10;;;32.80;29.00;;;;;;5109636;28;20461;-76
2022/07/15 11:09:50;;;;;;;0.20;0.10;;;32.70;28.50;;;;;;5107657;27;21591;-75
2022/07/15 11:12:19;;;;;;;0.00;0.00;;;32.80;28.80;;;;;;5102458;27;20111;-79
2022/07/15 11:14:46;;;;;;;0.30;0.30;;;32.80;29.10;;;;;;5088035;28;20031;-79
2022/07/15 11:17:16;;;;;;;0.63;0.20;;;32.70;28.50;;;;;;5086596;28;20089;-80
2022/07/15 11:19:46;;;;;;;0.00;0.00;;;32.90;28.50;;;;;;5102565;28;20055;-80
2022/07/15 11:22:12;;;;;;;0.00;0.00;;;32.70;28.10;;;;;;5109591;27;20373;-77
2022/07/15 11:24:41;;;;;;;0.00;0.00;;;32.70;28.20;;;;;;5098769;27;20105;-81
2022/07/15 11:27:07;;;;;;;0.00;0.00;;;32.80;28.20;;;;;;5100608;28;20024;-80
2022/07/15 11:29:51;;;;;;;0.00;0.00;;;32.90;27.50;;;;;;5085092;28;20026;-79
2022/07/15 11:32:20;;;;;;;0.35;0.20;;;33.10;27.80;;;;;;5110345;28;20104;-76
2022/07/15 11:34:56;;;;;;;0.00;0.00;;;33.00;28.10;;;;;;5112888;27;20020;-77
2022/07/15 11:37:56;;;;;;;0.00;0.00;;;32.90;28.20;;;;;;5090267;28;20494;-75
2022/07/15 11:45:59;;;;;;;0.00;0.00;;;32.60;27.90;;;;;;5104934;27;20493;-78
2022/07/15 11:48:25;;;;;;;0.00;0.00;;;32.80;28.30;;;;;;5117097;27;20029;-78
2022/07/15 11:50:56;;;;;;;0.00;0.00;;;32.90;29.20;;;;;;5101364;27;20020;-79
2022/07/15 11:53:23;;;;;;;0.00;0.00;;;32.90;29.40;;;;;;5100637;28;20031;-76
2022/07/15 11:55:53;;;;;;;0.00;0.00;;;32.90;28.80;;;;;;5102209;28;20473;-77
2022/07/15 11:58:37;;;;;;;0.00;0.00;;;33.00;27.80;;;;;;5102016;28;20047;-75
2022/07/15 12:01:14;;;;;;;0.00;0.00;;;32.90;27.50;;;;;;5102314;27;20028;-74
2022/07/15 12:03:42;;;;;;;0.00;0.00;;;32.90;27.60;;;;;;5098294;27;20024;-74
2022/07/15 12:06:17;;;;;;;0.00;0.00;;;32.80;28.00;;;;;;5100512;28;20039;-75
2022/07/15 12:08:49;;;;;;;8.60;8.13;;;32.80;27.60;;;;;;5096810;27;20048;-75
2022/07/15 12:11:18;;;;;;;0.00;0.00;;;32.80;28.00;;;;;;5099902;27;20053;-78
2022/07/15 12:13:47;;;;;;;0.00;0.00;;;32.70;28.80;;;;;;5098333;28;20030;-74
2022/07/15 12:16:13;;;;;;;0.00;0.00;;;32.60;27.90;;;;;;5106860;27;20383;-75
2022/07/15 12:18:39;;;;;;;0.00;0.00;;;32.40;27.00;;;;;;5107186;28;20023;-74
2022/07/15 12:21:06;;;;;;;0.00;0.00;;;32.20;26.60;;;;;;5124213;27;20530;-74
2022/07/15 12:23:32;;;;;;;0.00;0.00;;;32.30;26.60;;;;;;5103239;27;20071;-73
2022/07/15 12:26:09;;;;;;;0.00;0.00;;;32.20;26.80;;;;;;5102691;28;20034;-73
2022/07/15 12:28:37;;;;;;;0.00;0.00;;;32.30;27.80;;;;;;5105338;27;20092;-73
2022/07/15 12:31:04;;;;;;;0.00;0.00;;;32.20;28.00;;;;;;5098649;28;20031;-74
2022/07/15 12:33:35;;;;;;;0.00;0.00;;;32.20;27.60;;;;;;5100651;28;20023;-73
2022/07/15 12:36:16;;;;;;;0.00;0.00;;;32.20;28.40;;;;;;5125784;27;20023;-73
2022/07/15 12:38:42;;;;;;;0.00;0.00;;;32.20;29.10;;;;;;5119125;27;20485;-73
2022/07/15 12:41:25;;;;;;;0.00;0.00;;;32.20;28.80;;;;;;5122896;27;20028;-73
2022/07/15 12:44:01;;;;;;;0.00;0.00;;;32.20;28.70;;;;;;5130973;27;20027;-75
2022/07/15 12:46:51;;;;;;;0.00;0.00;;;32.20;28.20;;;;;;5106324;27;20039;-74
2022/07/15 12:49:40;;;;;;;0.20;0.20;;;32.30;27.40;;;;;;5138775;27;20010;-75
2022/07/15 12:52:32;;;;;;;0.00;0.00;;;32.40;28.00;;;;;;5156193;27;20023;-75
2022/07/15 12:55:12;;;;;;;0.00;0.00;;;32.20;28.70;;;;;;5124499;27;20027;-75
2022/07/15 12:57:38;;;;;;;0.00;0.00;;;32.20;28.70;;;;;;5115188;27;20024;-75
2022/07/15 13:00:37;;;;;;;0.00;0.00;;;32.10;28.40;;;;;;5123079;27;20065;-75
2022/07/15 13:03:11;;;;;;;0.00;0.00;;;32.00;28.70;;;;;;5095774;27;20043;-75
2022/07/15 13:05:45;;;;;;;0.00;0.00;;;32.00;28.90;;;;;;5115929;27;20022;-75
2022/07/15 13:08:22;;;;;;;0.00;0.00;;;31.80;29.60;;;;;;5126294;27;20477;-74
2022/07/15 13:10:52;;;;;;;1.67;1.55;;;31.80;29.30;;;;;;5133545;27;20030;-74
2022/07/15 13:13:21;;;;;;;0.03;0.03;;;31.70;29.10;;;;;;5131220;27;20064;-76
2022/07/15 13:15:47;;;;;;;0.00;0.00;;;31.80;28.40;;;;;;5124165;27;20035;-80